sensor_id;sensor_type;location;lat;lon;timestamp;P1;durP1;ratioP1;P2;durP2;ratioP2
6679;SDS011;3376;42.664;23.346;2023-02-17T00:01:16;43.77;;;25.53;;
6679;SDS011;3376;42.664;23.346;2023-02-17T00:03:47;44.10;;;22.37;;
6679;SDS011;3376;42.664;23.346;2023-02-17T00:06:14;41.30;;;25.30;;
6679;SDS011;3376;42.664;23.346;2023-02-17T00:08:43;43.20;;;23.67;;
6679;SDS011;3376;42.664;23.346;2023-02-17T00:11:10;48.10;;;24.93;;
6679;SDS011;3376;42.664;23.346;2023-02-17T00:13:38;55.07;;;28.70;;
6679;SDS011;3376;42.664;23.346;2023-02-17T00:16:07;41.93;;;24.00;;
6679;SDS011;3376;42.664;23.346;2023-02-17T00:18:35;46.23;;;25.60;;
6679;SDS011;3376;42.664;23.346;2023-02-17T00:21:11;33.47;;;20.97;;
6679;SDS011;3376;42.664;23.346;2023-02-17T00:23:39;44.87;;;23.70;;
6679;SDS011;3376;42.664;23.346;2023-02-17T00:26:06;50.27;;;26.50;;
6679;SDS011;3376;42.664;23.346;2023-02-17T00:28:33;46.87;;;24.70;;
6679;SDS011;3376;42.664;23.346;2023-02-17T00:31:04;41.57;;;24.97;;
6679;SDS011;3376;42.664;23.346;2023-02-17T00:33:31;42.53;;;26.57;;
6679;SDS011;3376;42.664;23.346;2023-02-17T00:35:58;42.47;;;23.90;;
6679;SDS011;3376;42.664;23.346;2023-02-17T00:38:27;38.72;;;23.48;;
6679;SDS011;3376;42.664;23.346;2023-02-17T00:40:54;46.83;;;25.97;;
6679;SDS011;3376;42.664;23.346;2023-02-17T00:43:21;38.70;;;22.90;;
6679;SDS011;3376;42.664;23.346;2023-02-17T00:45:48;34.45;;;21.75;;
6679;SDS011;3376;42.664;23.346;2023-02-17T00:48:15;36.63;;;23.20;;
6679;SDS011;3376;42.664;23.346;2023-02-17T00:50:41;41.57;;;23.50;;
6679;SDS011;3376;42.664;23.346;2023-02-17T00:53:08;31.77;;;20.80;;
6679;SDS011;3376;42.664;23.346;2023-02-17T00:55:36;40.53;;;24.37;;
6679;SDS011;3376;42.664;23.346;2023-02-17T00:58:03;42.20;;;22.30;;
6679;SDS011;3376;42.664;23.346;2023-02-17T01:00:29;34.37;;;21.90;;
6679;SDS011;3376;42.664;23.346;2023-02-17T01:02:56;36.13;;;21.30;;
6679;SDS011;3376;42.664;23.346;2023-02-17T01:05:23;34.03;;;21.40;;
6679;SDS011;3376;42.664;23.346;2023-02-17T01:07:50;36.43;;;21.93;;
6679;SDS011;3376;42.664;23.346;2023-02-17T01:10:16;34.40;;;21.67;;
6679;SDS011;3376;42.664;23.346;2023-02-17T01:12:45;43.93;;;24.27;;
6679;SDS011;3376;42.664;23.346;2023-02-17T01:15:12;41.23;;;20.67;;
6679;SDS011;3376;42.664;23.346;2023-02-17T01:17:39;34.37;;;21.40;;
6679;SDS011;3376;42.664;23.346;2023-02-17T01:20:07;37.37;;;22.57;;
6679;SDS011;3376;42.664;23.346;2023-02-17T01:22:34;34.87;;;21.13;;
6679;SDS011;3376;42.664;23.346;2023-02-17T01:25:03;35.20;;;21.07;;
6679;SDS011;3376;42.664;23.346;2023-02-17T01:27:30;36.47;;;22.70;;
6679;SDS011;3376;42.664;23.346;2023-02-17T01:29:58;38.88;;;21.15;;
6679;SDS011;3376;42.664;23.346;2023-02-17T01:32:25;43.83;;;24.50;;
6679;SDS011;3376;42.664;23.346;2023-02-17T01:34:52;38.97;;;22.33;;
6679;SDS011;3376;42.664;23.346;2023-02-17T01:37:19;41.15;;;22.33;;
6679;SDS011;3376;42.664;23.346;2023-02-17T01:39:45;46.78;;;24.40;;
6679;SDS011;3376;42.664;23.346;2023-02-17T01:42:14;41.47;;;24.53;;
6679;SDS011;3376;42.664;23.346;2023-02-17T01:47:47;44.58;;;23.33;;
6679;SDS011;3376;42.664;23.346;2023-02-17T01:50:18;37.25;;;20.95;;
6679;SDS011;3376;42.664;23.346;2023-02-17T01:52:48;38.55;;;21.05;;
6679;SDS011;3376;42.664;23.346;2023-02-17T01:55:16;45.72;;;25.73;;
6679;SDS011;3376;42.664;23.346;2023-02-17T01:57:45;32.42;;;23.20;;
6679;SDS011;3376;42.664;23.346;2023-02-17T02:00:14;33.92;;;21.65;;
6679;SDS011;3376;42.664;23.346;2023-02-17T02:02:43;35.80;;;22.45;;
6679;SDS011;3376;42.664;23.346;2023-02-17T02:05:13;42.88;;;22.17;;
6679;SDS011;3376;42.664;23.346;2023-02-17T02:07:41;37.45;;;22.02;;
6679;SDS011;3376;42.664;23.346;2023-02-17T02:10:10;38.28;;;22.10;;
6679;SDS011;3376;42.664;23.346;2023-02-17T02:12:41;39.75;;;22.42;;
6679;SDS011;3376;42.664;23.346;2023-02-17T02:15:08;42.42;;;23.15;;
6679;SDS011;3376;42.664;23.346;2023-02-17T02:17:39;67.40;;;35.20;;
6679;SDS011;3376;42.664;23.346;2023-02-17T02:20:24;82.20;;;38.35;;
6679;SDS011;3376;42.664;23.346;2023-02-17T02:26:11;52.67;;;29.37;;
6679;SDS011;3376;42.664;23.346;2023-02-17T02:29:07;43.55;;;25.85;;
6679;SDS011;3376;42.664;23.346;2023-02-17T02:31:50;48.07;;;27.97;;
6679;SDS011;3376;42.664;23.346;2023-02-17T02:34:30;51.07;;;26.20;;
6679;SDS011;3376;42.664;23.346;2023-02-17T02:37:03;45.55;;;24.52;;
6679;SDS011;3376;42.664;23.346;2023-02-17T02:39:36;42.80;;;23.65;;
6679;SDS011;3376;42.664;23.346;2023-02-17T02:42:08;41.53;;;23.15;;
6679;SDS011;3376;42.664;23.346;2023-02-17T02:44:39;43.45;;;24.13;;
6679;SDS011;3376;42.664;23.346;2023-02-17T02:50:08;37.33;;;21.75;;
6679;SDS011;3376;42.664;23.346;2023-02-17T02:52:39;38.05;;;22.48;;
6679;SDS011;3376;42.664;23.346;2023-02-17T02:55:16;36.95;;;23.77;;
6679;SDS011;3376;42.664;23.346;2023-02-17T02:57:51;40.92;;;23.10;;
6679;SDS011;3376;42.664;23.346;2023-02-17T03:00:24;43.72;;;25.00;;
6679;SDS011;3376;42.664;23.346;2023-02-17T03:03:04;38.15;;;23.95;;
6679;SDS011;3376;42.664;23.346;2023-02-17T03:05:41;40.35;;;23.77;;
6679;SDS011;3376;42.664;23.346;2023-02-17T03:08:18;35.90;;;20.70;;
6679;SDS011;3376;42.664;23.346;2023-02-17T03:10:50;38.83;;;22.33;;
6679;SDS011;3376;42.664;23.346;2023-02-17T03:13:19;35.90;;;24.35;;
6679;SDS011;3376;42.664;23.346;2023-02-17T03:15:47;39.35;;;26.05;;
6679;SDS011;3376;42.664;23.346;2023-02-17T03:18:14;36.15;;;22.13;;
6679;SDS011;3376;42.664;23.346;2023-02-17T03:20:42;40.67;;;21.30;;
6679;SDS011;3376;42.664;23.346;2023-02-17T03:23:13;36.30;;;23.23;;
6679;SDS011;3376;42.664;23.346;2023-02-17T03:25:40;35.80;;;20.70;;
6679;SDS011;3376;42.664;23.346;2023-02-17T03:28:09;39.33;;;23.55;;
6679;SDS011;3376;42.664;23.346;2023-02-17T03:30:35;35.92;;;21.70;;
6679;SDS011;3376;42.664;23.346;2023-02-17T03:33:02;29.85;;;23.13;;
6679;SDS011;3376;42.664;23.346;2023-02-17T03:35:29;42.20;;;21.95;;
6679;SDS011;3376;42.664;23.346;2023-02-17T03:37:57;38.83;;;23.67;;
6679;SDS011;3376;42.664;23.346;2023-02-17T03:40:24;43.92;;;21.65;;
6679;SDS011;3376;42.664;23.346;2023-02-17T03:42:51;30.42;;;20.38;;
6679;SDS011;3376;42.664;23.346;2023-02-17T03:45:18;34.15;;;20.90;;
6679;SDS011;3376;42.664;23.346;2023-02-17T03:47:44;36.78;;;20.98;;
6679;SDS011;3376;42.664;23.346;2023-02-17T03:50:11;37.13;;;21.08;;
6679;SDS011;3376;42.664;23.346;2023-02-17T03:52:38;39.35;;;20.65;;
6679;SDS011;3376;42.664;23.346;2023-02-17T03:55:06;32.35;;;19.45;;
6679;SDS011;3376;42.664;23.346;2023-02-17T03:57:33;36.53;;;21.58;;
6679;SDS011;3376;42.664;23.346;2023-02-17T04:00:00;34.85;;;20.48;;
6679;SDS011;3376;42.664;23.346;2023-02-17T04:02:27;33.45;;;21.13;;
6679;SDS011;3376;42.664;23.346;2023-02-17T04:04:54;34.58;;;18.67;;
6679;SDS011;3376;42.664;23.346;2023-02-17T04:07:21;33.30;;;20.23;;
6679;SDS011;3376;42.664;23.346;2023-02-17T04:09:48;34.45;;;21.20;;
6679;SDS011;3376;42.664;23.346;2023-02-17T04:12:16;31.77;;;21.48;;
6679;SDS011;3376;42.664;23.346;2023-02-17T04:14:42;34.40;;;20.27;;
6679;SDS011;3376;42.664;23.346;2023-02-17T04:17:09;32.70;;;19.45;;
6679;SDS011;3376;42.664;23.346;2023-02-17T04:19:36;33.83;;;20.20;;
6679;SDS011;3376;42.664;23.346;2023-02-17T04:22:03;33.38;;;20.33;;
6679;SDS011;3376;42.664;23.346;2023-02-17T04:24:32;29.00;;;19.02;;
6679;SDS011;3376;42.664;23.346;2023-02-17T04:27:00;34.78;;;19.15;;
6679;SDS011;3376;42.664;23.346;2023-02-17T04:29:28;33.30;;;19.63;;
6679;SDS011;3376;42.664;23.346;2023-02-17T04:31:55;31.00;;;19.70;;
6679;SDS011;3376;42.664;23.346;2023-02-17T04:34:22;33.65;;;19.58;;
6679;SDS011;3376;42.664;23.346;2023-02-17T04:36:49;31.63;;;18.88;;
6679;SDS011;3376;42.664;23.346;2023-02-17T04:39:16;32.90;;;21.25;;
6679;SDS011;3376;42.664;23.346;2023-02-17T04:41:42;36.65;;;22.80;;
6679;SDS011;3376;42.664;23.346;2023-02-17T04:44:09;35.33;;;19.35;;
6679;SDS011;3376;42.664;23.346;2023-02-17T04:46:37;28.73;;;18.75;;
6679;SDS011;3376;42.664;23.346;2023-02-17T04:49:04;31.70;;;19.48;;
6679;SDS011;3376;42.664;23.346;2023-02-17T04:51:31;28.35;;;18.48;;
6679;SDS011;3376;42.664;23.346;2023-02-17T04:53:57;26.90;;;18.75;;
6679;SDS011;3376;42.664;23.346;2023-02-17T04:56:24;36.10;;;22.48;;
6679;SDS011;3376;42.664;23.346;2023-02-17T04:58:51;32.22;;;19.65;;
6679;SDS011;3376;42.664;23.346;2023-02-17T05:01:18;30.00;;;18.95;;
6679;SDS011;3376;42.664;23.346;2023-02-17T05:03:46;36.53;;;20.17;;
6679;SDS011;3376;42.664;23.346;2023-02-17T05:06:13;33.70;;;22.40;;
6679;SDS011;3376;42.664;23.346;2023-02-17T05:08:39;29.98;;;20.77;;
6679;SDS011;3376;42.664;23.346;2023-02-17T05:11:06;36.83;;;23.58;;
6679;SDS011;3376;42.664;23.346;2023-02-17T05:13:33;39.25;;;21.60;;
6679;SDS011;3376;42.664;23.346;2023-02-17T05:15:59;34.13;;;21.58;;
6679;SDS011;3376;42.664;23.346;2023-02-17T05:18:26;26.23;;;19.50;;
6679;SDS011;3376;42.664;23.346;2023-02-17T05:20:54;28.27;;;17.40;;
6679;SDS011;3376;42.664;23.346;2023-02-17T05:23:21;25.13;;;17.52;;
6679;SDS011;3376;42.664;23.346;2023-02-17T05:25:48;26.67;;;18.20;;
6679;SDS011;3376;42.664;23.346;2023-02-17T05:28:15;31.63;;;21.15;;
6679;SDS011;3376;42.664;23.346;2023-02-17T05:30:42;29.50;;;17.52;;
6679;SDS011;3376;42.664;23.346;2023-02-17T05:33:09;28.33;;;18.52;;
6679;SDS011;3376;42.664;23.346;2023-02-17T05:35:35;29.40;;;19.45;;
6679;SDS011;3376;42.664;23.346;2023-02-17T05:38:04;34.22;;;20.10;;
6679;SDS011;3376;42.664;23.346;2023-02-17T05:40:30;29.73;;;17.58;;
6679;SDS011;3376;42.664;23.346;2023-02-17T05:42:57;33.50;;;19.35;;
6679;SDS011;3376;42.664;23.346;2023-02-17T05:45:24;27.08;;;18.38;;
6679;SDS011;3376;42.664;23.346;2023-02-17T05:47:51;31.63;;;20.08;;
6679;SDS011;3376;42.664;23.346;2023-02-17T05:50:17;29.77;;;19.60;;
6679;SDS011;3376;42.664;23.346;2023-02-17T05:52:44;28.30;;;18.23;;
6679;SDS011;3376;42.664;23.346;2023-02-17T05:55:12;34.90;;;19.75;;
6679;SDS011;3376;42.664;23.346;2023-02-17T05:57:39;33.40;;;19.23;;
6679;SDS011;3376;42.664;23.346;2023-02-17T06:00:09;27.10;;;18.42;;
6679;SDS011;3376;42.664;23.346;2023-02-17T06:02:37;30.40;;;18.90;;
6679;SDS011;3376;42.664;23.346;2023-02-17T06:05:04;29.55;;;19.33;;
6679;SDS011;3376;42.664;23.346;2023-02-17T06:07:32;33.43;;;18.53;;
6679;SDS011;3376;42.664;23.346;2023-02-17T06:09:59;31.42;;;18.70;;
6679;SDS011;3376;42.664;23.346;2023-02-17T06:12:27;31.88;;;18.45;;
6679;SDS011;3376;42.664;23.346;2023-02-17T06:14:54;30.67;;;19.83;;
6679;SDS011;3376;42.664;23.346;2023-02-17T06:17:20;30.90;;;20.57;;
6679;SDS011;3376;42.664;23.346;2023-02-17T06:19:47;35.23;;;18.80;;
6679;SDS011;3376;42.664;23.346;2023-02-17T06:22:15;40.80;;;22.10;;
6679;SDS011;3376;42.664;23.346;2023-02-17T06:24:42;28.83;;;19.60;;
6679;SDS011;3376;42.664;23.346;2023-02-17T06:27:09;29.73;;;18.73;;
6679;SDS011;3376;42.664;23.346;2023-02-17T06:29:37;36.27;;;20.87;;
6679;SDS011;3376;42.664;23.346;2023-02-17T06:32:04;28.70;;;19.40;;
6679;SDS011;3376;42.664;23.346;2023-02-17T06:34:31;30.77;;;20.73;;
6679;SDS011;3376;42.664;23.346;2023-02-17T06:36:57;32.30;;;20.07;;
6679;SDS011;3376;42.664;23.346;2023-02-17T06:39:24;37.80;;;20.73;;
6679;SDS011;3376;42.664;23.346;2023-02-17T06:41:51;33.43;;;20.97;;
6679;SDS011;3376;42.664;23.346;2023-02-17T06:44:18;36.43;;;19.83;;
6679;SDS011;3376;42.664;23.346;2023-02-17T06:46:46;31.57;;;21.93;;
6679;SDS011;3376;42.664;23.346;2023-02-17T06:49:13;30.53;;;21.30;;
6679;SDS011;3376;42.664;23.346;2023-02-17T06:51:40;57.30;;;34.43;;
6679;SDS011;3376;42.664;23.346;2023-02-17T06:54:07;52.63;;;30.13;;
6679;SDS011;3376;42.664;23.346;2023-02-17T06:56:34;36.87;;;22.20;;
6679;SDS011;3376;42.664;23.346;2023-02-17T06:59:01;36.83;;;20.50;;
6679;SDS011;3376;42.664;23.346;2023-02-17T07:01:28;34.57;;;20.33;;
6679;SDS011;3376;42.664;23.346;2023-02-17T07:03:57;27.90;;;20.40;;
6679;SDS011;3376;42.664;23.346;2023-02-17T07:06:24;28.87;;;20.70;;
6679;SDS011;3376;42.664;23.346;2023-02-17T07:08:51;28.97;;;22.27;;
6679;SDS011;3376;42.664;23.346;2023-02-17T07:11:18;32.20;;;20.43;;
6679;SDS011;3376;42.664;23.346;2023-02-17T07:13:45;31.67;;;22.07;;
6679;SDS011;3376;42.664;23.346;2023-02-17T07:16:12;26.73;;;21.67;;
6679;SDS011;3376;42.664;23.346;2023-02-17T07:18:40;29.23;;;20.80;;
6679;SDS011;3376;42.664;23.346;2023-02-17T07:21:08;31.53;;;20.97;;
6679;SDS011;3376;42.664;23.346;2023-02-17T07:23:35;27.73;;;22.13;;
6679;SDS011;3376;42.664;23.346;2023-02-17T07:26:04;29.60;;;21.63;;
6679;SDS011;3376;42.664;23.346;2023-02-17T07:28:33;30.20;;;23.13;;
6679;SDS011;3376;42.664;23.346;2023-02-17T07:31:03;31.47;;;22.60;;
6679;SDS011;3376;42.664;23.346;2023-02-17T07:33:31;27.63;;;21.87;;
6679;SDS011;3376;42.664;23.346;2023-02-17T07:35:58;29.57;;;21.67;;
6679;SDS011;3376;42.664;23.346;2023-02-17T07:38:26;24.60;;;20.43;;
6679;SDS011;3376;42.664;23.346;2023-02-17T07:40:53;25.17;;;20.63;;
6679;SDS011;3376;42.664;23.346;2023-02-17T07:43:20;29.63;;;20.13;;
6679;SDS011;3376;42.664;23.346;2023-02-17T07:45:46;31.23;;;19.03;;
6679;SDS011;3376;42.664;23.346;2023-02-17T07:48:13;25.40;;;19.83;;
6679;SDS011;3376;42.664;23.346;2023-02-17T07:50:40;25.20;;;19.70;;
6679;SDS011;3376;42.664;23.346;2023-02-17T07:53:07;25.07;;;18.10;;
6679;SDS011;3376;42.664;23.346;2023-02-17T07:55:35;23.33;;;18.97;;
6679;SDS011;3376;42.664;23.346;2023-02-17T07:58:02;32.27;;;20.37;;
6679;SDS011;3376;42.664;23.346;2023-02-17T08:00:29;31.23;;;20.07;;
6679;SDS011;3376;42.664;23.346;2023-02-17T08:02:56;28.73;;;18.93;;
6679;SDS011;3376;42.664;23.346;2023-02-17T08:05:23;27.27;;;18.13;;
6679;SDS011;3376;42.664;23.346;2023-02-17T08:07:49;22.27;;;18.40;;
6679;SDS011;3376;42.664;23.346;2023-02-17T08:10:38;26.70;;;18.93;;
6679;SDS011;3376;42.664;23.346;2023-02-17T08:13:22;22.47;;;18.13;;
6679;SDS011;3376;42.664;23.346;2023-02-17T08:15:50;23.67;;;17.77;;
6679;SDS011;3376;42.664;23.346;2023-02-17T08:18:17;26.83;;;19.00;;
6679;SDS011;3376;42.664;23.346;2023-02-17T08:20:44;31.17;;;18.33;;
6679;SDS011;3376;42.664;23.346;2023-02-17T08:23:10;21.20;;;18.83;;
6679;SDS011;3376;42.664;23.346;2023-02-17T08:25:39;24.67;;;18.40;;
6679;SDS011;3376;42.664;23.346;2023-02-17T08:28:06;31.97;;;19.50;;
6679;SDS011;3376;42.664;23.346;2023-02-17T08:30:33;25.77;;;19.13;;
6679;SDS011;3376;42.664;23.346;2023-02-17T08:33:02;29.47;;;18.90;;
6679;SDS011;3376;42.664;23.346;2023-02-17T08:35:29;31.27;;;20.83;;
6679;SDS011;3376;42.664;23.346;2023-02-17T08:37:56;28.70;;;19.10;;
6679;SDS011;3376;42.664;23.346;2023-02-17T08:40:23;24.40;;;20.00;;
6679;SDS011;3376;42.664;23.346;2023-02-17T08:42:51;28.30;;;20.10;;
6679;SDS011;3376;42.664;23.346;2023-02-17T08:45:18;27.67;;;22.23;;
6679;SDS011;3376;42.664;23.346;2023-02-17T08:47:45;25.97;;;21.53;;
6679;SDS011;3376;42.664;23.346;2023-02-17T08:50:15;28.30;;;21.43;;
6679;SDS011;3376;42.664;23.346;2023-02-17T08:52:44;27.97;;;21.73;;
6679;SDS011;3376;42.664;23.346;2023-02-17T08:55:11;28.97;;;21.47;;
6679;SDS011;3376;42.664;23.346;2023-02-17T08:57:38;35.07;;;22.97;;
6679;SDS011;3376;42.664;23.346;2023-02-17T09:00:07;30.33;;;22.73;;
6679;SDS011;3376;42.664;23.346;2023-02-17T09:02:34;29.67;;;23.07;;
6679;SDS011;3376;42.664;23.346;2023-02-17T09:05:02;41.10;;;23.93;;
6679;SDS011;3376;42.664;23.346;2023-02-17T09:07:29;47.57;;;25.93;;
6679;SDS011;3376;42.664;23.346;2023-02-17T09:09:56;39.53;;;23.80;;
6679;SDS011;3376;42.664;23.346;2023-02-17T09:12:23;34.37;;;26.23;;
6679;SDS011;3376;42.664;23.346;2023-02-17T09:14:49;50.43;;;27.40;;
6679;SDS011;3376;42.664;23.346;2023-02-17T09:17:18;49.20;;;28.20;;
6679;SDS011;3376;42.664;23.346;2023-02-17T09:19:45;41.20;;;26.13;;
6679;SDS011;3376;42.664;23.346;2023-02-17T09:22:12;37.47;;;26.70;;
6679;SDS011;3376;42.664;23.346;2023-02-17T09:24:41;39.13;;;28.57;;
6679;SDS011;3376;42.664;23.346;2023-02-17T09:27:08;48.27;;;28.53;;
6679;SDS011;3376;42.664;23.346;2023-02-17T09:29:35;43.73;;;27.77;;
6679;SDS011;3376;42.664;23.346;2023-02-17T09:32:05;42.87;;;26.33;;
6679;SDS011;3376;42.664;23.346;2023-02-17T09:34:34;31.70;;;17.83;;
6679;SDS011;3376;42.664;23.346;2023-02-17T09:37:01;13.83;;;9.80;;
6679;SDS011;3376;42.664;23.346;2023-02-17T09:39:28;10.73;;;8.13;;
6679;SDS011;3376;42.664;23.346;2023-02-17T09:41:55;8.07;;;7.50;;
6679;SDS011;3376;42.664;23.346;2023-02-17T09:44:22;6.90;;;6.40;;
6679;SDS011;3376;42.664;23.346;2023-02-17T09:46:52;6.63;;;6.03;;
6679;SDS011;3376;42.664;23.346;2023-02-17T09:49:24;7.00;;;6.20;;
6679;SDS011;3376;42.664;23.346;2023-02-17T09:51:57;6.73;;;6.13;;
6679;SDS011;3376;42.664;23.346;2023-02-17T09:54:29;7.63;;;5.97;;
6679;SDS011;3376;42.664;23.346;2023-02-17T09:57:00;6.70;;;6.20;;
6679;SDS011;3376;42.664;23.346;2023-02-17T09:59:31;5.60;;;5.30;;
6679;SDS011;3376;42.664;23.346;2023-02-17T10:02:05;5.57;;;5.07;;
6679;SDS011;3376;42.664;23.346;2023-02-17T10:04:34;6.33;;;5.73;;
6679;SDS011;3376;42.664;23.346;2023-02-17T10:07:06;7.33;;;6.80;;
6679;SDS011;3376;42.664;23.346;2023-02-17T10:09:41;5.23;;;5.03;;
6679;SDS011;3376;42.664;23.346;2023-02-17T10:12:14;6.63;;;5.77;;
6679;SDS011;3376;42.664;23.346;2023-02-17T10:14:45;8.57;;;5.30;;
6679;SDS011;3376;42.664;23.346;2023-02-17T10:17:19;6.23;;;5.63;;
6679;SDS011;3376;42.664;23.346;2023-02-17T10:19:51;7.63;;;6.57;;
6679;SDS011;3376;42.664;23.346;2023-02-17T10:22:23;11.83;;;6.00;;
6679;SDS011;3376;42.664;23.346;2023-02-17T10:24:52;5.73;;;5.33;;
6679;SDS011;3376;42.664;23.346;2023-02-17T10:27:23;5.97;;;5.40;;
6679;SDS011;3376;42.664;23.346;2023-02-17T10:29:59;8.53;;;6.13;;
6679;SDS011;3376;42.664;23.346;2023-02-17T10:32:36;6.20;;;5.63;;
6679;SDS011;3376;42.664;23.346;2023-02-17T10:35:12;10.60;;;7.43;;
6679;SDS011;3376;42.664;23.346;2023-02-17T10:37:45;5.80;;;5.27;;
6679;SDS011;3376;42.664;23.346;2023-02-17T10:40:15;7.93;;;4.83;;
6679;SDS011;3376;42.664;23.346;2023-02-17T10:42:44;5.40;;;4.90;;
6679;SDS011;3376;42.664;23.346;2023-02-17T10:45:18;5.73;;;5.00;;
6679;SDS011;3376;42.664;23.346;2023-02-17T10:47:54;8.53;;;5.77;;
6679;SDS011;3376;42.664;23.346;2023-02-17T10:50:24;4.97;;;4.67;;
6679;SDS011;3376;42.664;23.346;2023-02-17T10:52:53;5.47;;;5.03;;
6679;SDS011;3376;42.664;23.346;2023-02-17T10:55:23;4.87;;;4.57;;
6679;SDS011;3376;42.664;23.346;2023-02-17T10:57:57;5.63;;;5.13;;
6679;SDS011;3376;42.664;23.346;2023-02-17T11:00:29;5.80;;;5.30;;
6679;SDS011;3376;42.664;23.346;2023-02-17T11:02:57;4.23;;;3.93;;
6679;SDS011;3376;42.664;23.346;2023-02-17T11:05:24;5.80;;;4.87;;
6679;SDS011;3376;42.664;23.346;2023-02-17T11:07:55;5.87;;;5.37;;
6679;SDS011;3376;42.664;23.346;2023-02-17T11:10:26;9.80;;;5.47;;
6679;SDS011;3376;42.664;23.346;2023-02-17T11:12:54;5.47;;;5.17;;
6679;SDS011;3376;42.664;23.346;2023-02-17T11:15:24;5.50;;;5.10;;
6679;SDS011;3376;42.664;23.346;2023-02-17T11:17:53;5.53;;;5.13;;
6679;SDS011;3376;42.664;23.346;2023-02-17T11:20:31;6.17;;;4.97;;
6679;SDS011;3376;42.664;23.346;2023-02-17T11:23:03;5.17;;;4.87;;
6679;SDS011;3376;42.664;23.346;2023-02-17T11:25:34;5.17;;;4.80;;
6679;SDS011;3376;42.664;23.346;2023-02-17T11:28:03;5.13;;;4.83;;
6679;SDS011;3376;42.664;23.346;2023-02-17T11:30:31;5.87;;;5.47;;
6679;SDS011;3376;42.664;23.346;2023-02-17T11:33:09;6.10;;;5.80;;
6679;SDS011;3376;42.664;23.346;2023-02-17T11:35:48;6.07;;;5.77;;
6679;SDS011;3376;42.664;23.346;2023-02-17T11:38:18;5.47;;;5.07;;
6679;SDS011;3376;42.664;23.346;2023-02-17T11:40:53;6.67;;;6.23;;
6679;SDS011;3376;42.664;23.346;2023-02-17T11:43:23;5.87;;;5.57;;
6679;SDS011;3376;42.664;23.346;2023-02-17T11:45:55;5.70;;;5.40;;
6679;SDS011;3376;42.664;23.346;2023-02-17T11:48:41;11.83;;;6.00;;
6679;SDS011;3376;42.664;23.346;2023-02-17T11:51:21;6.33;;;5.77;;
6679;SDS011;3376;42.664;23.346;2023-02-17T11:54:01;5.93;;;5.53;;
6679;SDS011;3376;42.664;23.346;2023-02-17T11:56:40;5.63;;;5.13;;
6679;SDS011;3376;42.664;23.346;2023-02-17T11:59:21;5.87;;;5.53;;
6679;SDS011;3376;42.664;23.346;2023-02-17T12:02:10;7.20;;;6.60;;
6679;SDS011;3376;42.664;23.346;2023-02-17T12:04:49;5.67;;;5.27;;
6679;SDS011;3376;42.664;23.346;2023-02-17T12:07:36;7.37;;;6.03;;
6679;SDS011;3376;42.664;23.346;2023-02-17T12:10:15;6.93;;;6.27;;
6679;SDS011;3376;42.664;23.346;2023-02-17T12:12:53;6.70;;;6.07;;
6679;SDS011;3376;42.664;23.346;2023-02-17T12:15:29;6.63;;;6.07;;
6679;SDS011;3376;42.664;23.346;2023-02-17T12:18:08;6.63;;;5.63;;
6679;SDS011;3376;42.664;23.346;2023-02-17T12:20:44;7.13;;;6.53;;
6679;SDS011;3376;42.664;23.346;2023-02-17T12:23:21;6.30;;;5.80;;
6679;SDS011;3376;42.664;23.346;2023-02-17T12:26:01;6.17;;;5.57;;
6679;SDS011;3376;42.664;23.346;2023-02-17T12:28:34;6.20;;;5.73;;
6679;SDS011;3376;42.664;23.346;2023-02-17T12:31:13;7.67;;;5.53;;
6679;SDS011;3376;42.664;23.346;2023-02-17T12:33:53;5.60;;;5.03;;
6679;SDS011;3376;42.664;23.346;2023-02-17T12:36:26;6.23;;;5.67;;
6679;SDS011;3376;42.664;23.346;2023-02-17T12:38:58;6.43;;;5.53;;
6679;SDS011;3376;42.664;23.346;2023-02-17T12:41:29;6.53;;;5.93;;
6679;SDS011;3376;42.664;23.346;2023-02-17T12:44:00;6.03;;;5.63;;
6679;SDS011;3376;42.664;23.346;2023-02-17T12:46:34;5.07;;;4.83;;
6679;SDS011;3376;42.664;23.346;2023-02-17T12:49:05;5.57;;;5.17;;
6679;SDS011;3376;42.664;23.346;2023-02-17T12:51:38;5.47;;;5.03;;
6679;SDS011;3376;42.664;23.346;2023-02-17T12:54:11;5.87;;;5.57;;
6679;SDS011;3376;42.664;23.346;2023-02-17T12:56:48;6.03;;;5.57;;
6679;SDS011;3376;42.664;23.346;2023-02-17T12:59:24;7.57;;;5.13;;
6679;SDS011;3376;42.664;23.346;2023-02-17T13:01:58;5.43;;;5.03;;
6679;SDS011;3376;42.664;23.346;2023-02-17T13:04:28;5.30;;;5.10;;
6679;SDS011;3376;42.664;23.346;2023-02-17T13:07:13;7.73;;;4.87;;
6679;SDS011;3376;42.664;23.346;2023-02-17T13:09:47;7.27;;;5.57;;
6679;SDS011;3376;42.664;23.346;2023-02-17T13:12:30;7.97;;;5.80;;
6679;SDS011;3376;42.664;23.346;2023-02-17T13:15:00;5.43;;;4.97;;
6679;SDS011;3376;42.664;23.346;2023-02-17T13:17:29;5.13;;;4.83;;
6679;SDS011;3376;42.664;23.346;2023-02-17T13:20:05;5.70;;;5.40;;
6679;SDS011;3376;42.664;23.346;2023-02-17T13:23:01;5.73;;;5.20;;
6679;SDS011;3376;42.664;23.346;2023-02-17T13:25:30;4.53;;;4.13;;
6679;SDS011;3376;42.664;23.346;2023-02-17T13:28:00;5.43;;;5.03;;
6679;SDS011;3376;42.664;23.346;2023-02-17T13:30:29;5.20;;;4.80;;
6679;SDS011;3376;42.664;23.346;2023-02-17T13:33:05;6.07;;;5.40;;
6679;SDS011;3376;42.664;23.346;2023-02-17T13:35:41;5.17;;;4.97;;
6679;SDS011;3376;42.664;23.346;2023-02-17T13:38:08;5.23;;;4.73;;
6679;SDS011;3376;42.664;23.346;2023-02-17T13:40:36;4.60;;;4.20;;
6679;SDS011;3376;42.664;23.346;2023-02-17T13:43:12;4.30;;;3.90;;
6679;SDS011;3376;42.664;23.346;2023-02-17T13:45:42;5.13;;;4.63;;
6679;SDS011;3376;42.664;23.346;2023-02-17T13:48:21;5.27;;;4.27;;
6679;SDS011;3376;42.664;23.346;2023-02-17T13:50:51;3.63;;;3.43;;
6679;SDS011;3376;42.664;23.346;2023-02-17T13:53:21;4.40;;;4.10;;
6679;SDS011;3376;42.664;23.346;2023-02-17T13:55:51;5.77;;;5.00;;
6679;SDS011;3376;42.664;23.346;2023-02-17T13:58:23;3.73;;;3.43;;
6679;SDS011;3376;42.664;23.346;2023-02-17T14:00:53;4.10;;;3.90;;
6679;SDS011;3376;42.664;23.346;2023-02-17T14:03:21;4.77;;;3.80;;
6679;SDS011;3376;42.664;23.346;2023-02-17T14:05:50;5.40;;;3.47;;
6679;SDS011;3376;42.664;23.346;2023-02-17T14:08:19;3.97;;;3.77;;
6679;SDS011;3376;42.664;23.346;2023-02-17T14:10:55;3.33;;;3.23;;
6679;SDS011;3376;42.664;23.346;2023-02-17T14:13:25;3.97;;;2.80;;
6679;SDS011;3376;42.664;23.346;2023-02-17T14:15:53;3.63;;;3.33;;
6679;SDS011;3376;42.664;23.346;2023-02-17T14:18:28;4.70;;;4.30;;
6679;SDS011;3376;42.664;23.346;2023-02-17T14:21:00;4.23;;;3.93;;
6679;SDS011;3376;42.664;23.346;2023-02-17T14:23:38;4.97;;;4.63;;
6679;SDS011;3376;42.664;23.346;2023-02-17T14:26:11;4.43;;;4.03;;
6679;SDS011;3376;42.664;23.346;2023-02-17T14:28:42;5.00;;;4.57;;
6679;SDS011;3376;42.664;23.346;2023-02-17T14:31:18;9.40;;;5.00;;
6679;SDS011;3376;42.664;23.346;2023-02-17T14:33:53;5.27;;;4.90;;
6679;SDS011;3376;42.664;23.346;2023-02-17T14:36:26;5.20;;;4.53;;
6679;SDS011;3376;42.664;23.346;2023-02-17T14:38:55;5.93;;;5.07;;
6679;SDS011;3376;42.664;23.346;2023-02-17T14:41:23;6.17;;;5.83;;
6679;SDS011;3376;42.664;23.346;2023-02-17T14:43:51;6.20;;;5.70;;
6679;SDS011;3376;42.664;23.346;2023-02-17T14:46:18;7.57;;;6.00;;
6679;SDS011;3376;42.664;23.346;2023-02-17T14:48:45;6.20;;;5.90;;
6679;SDS011;3376;42.664;23.346;2023-02-17T14:51:12;7.03;;;6.43;;
6679;SDS011;3376;42.664;23.346;2023-02-17T14:53:40;6.87;;;6.20;;
6679;SDS011;3376;42.664;23.346;2023-02-17T14:56:08;13.47;;;6.60;;
6679;SDS011;3376;42.664;23.346;2023-02-17T14:58:40;7.23;;;6.73;;
6679;SDS011;3376;42.664;23.346;2023-02-17T15:01:09;7.20;;;6.80;;
6679;SDS011;3376;42.664;23.346;2023-02-17T15:03:38;7.23;;;6.77;;
6679;SDS011;3376;42.664;23.346;2023-02-17T15:06:08;6.73;;;6.10;;
6679;SDS011;3376;42.664;23.346;2023-02-17T15:08:38;6.93;;;6.13;;